createdAt,value
2022-10-03T00:00:19.899Z,10.81
2022-10-03T00:02:23.943Z,10.75
2022-10-03T00:03:23.899Z,10.74
2022-10-03T00:05:16.830Z,10.76
2022-10-03T00:06:16.808Z,10.75
2022-10-03T00:08:09.902Z,10.86
2022-10-03T00:09:09.888Z,10.75
2022-10-03T00:11:03.004Z,10.76
2022-10-03T00:12:02.973Z,10.75
2022-10-03T00:13:55.875Z,10.78
2022-10-03T00:14:55.854Z,10.86
2022-10-03T00:16:59.845Z,10.84
2022-10-03T00:17:59.827Z,10.89
2022-10-03T00:20:03.837Z,10.90
2022-10-03T00:21:03.810Z,10.89
2022-10-03T00:22:56.906Z,10.86
2022-10-03T00:23:56.894Z,10.92
2022-10-03T00:26:00.877Z,10.87
2022-10-03T00:27:00.857Z,10.86
2022-10-03T00:29:04.839Z,10.97
2022-10-03T00:30:04.820Z,10.93
2022-10-03T00:32:08.787Z,10.93
2022-10-03T00:33:08.776Z,10.93
2022-10-03T00:35:12.770Z,10.93
2022-10-03T00:36:12.752Z,10.96
2022-10-03T00:38:16.745Z,11.00
2022-10-03T00:39:16.726Z,10.94
2022-10-03T00:41:20.713Z,10.84
2022-10-03T00:42:20.694Z,10.84
2022-10-03T00:44:13.618Z,10.82
2022-10-03T00:45:13.601Z,10.75
2022-10-03T00:47:17.600Z,10.84
2022-10-03T00:48:17.590Z,10.79
2022-10-03T00:50:21.602Z,10.76
2022-10-03T00:51:21.583Z,10.74
2022-10-03T00:53:25.566Z,10.74
2022-10-03T00:54:25.550Z,10.84
2022-10-03T00:56:19.254Z,10.78
2022-10-03T00:57:18.852Z,10.82
2022-10-03T00:59:22.842Z,10.78
2022-10-03T01:00:22.821Z,10.76
2022-10-03T01:02:26.864Z,10.76
2022-10-03T01:03:26.829Z,10.75
2022-10-03T01:05:30.833Z,10.72
2022-10-03T01:06:30.815Z,10.75
2022-10-03T01:08:34.798Z,10.75
2022-10-03T01:09:34.777Z,10.72
2022-10-03T01:11:39.026Z,10.76
2022-10-03T01:12:38.745Z,10.87
2022-10-03T01:14:31.662Z,10.86
2022-10-03T01:15:31.731Z,10.90
2022-10-03T01:17:35.630Z,11.00
2022-10-03T01:18:35.616Z,10.94
2022-10-03T01:20:39.623Z,11.02
2022-10-03T01:21:39.938Z,11.00
2022-10-03T01:23:43.602Z,11.12
2022-10-03T01:24:43.572Z,11.07
2022-10-03T01:25:43.564Z,11.08
2022-10-03T01:26:43.557Z,11.05
2022-10-03T01:27:43.548Z,11.14
2022-10-03T01:28:43.541Z,11.10
2022-10-03T01:29:43.531Z,11.14
2022-10-03T01:30:43.525Z,11.14
2022-10-03T01:31:43.961Z,11.17
2022-10-03T01:32:43.508Z,11.15
2022-10-03T01:33:43.502Z,11.18
2022-10-03T01:34:43.491Z,11.23
2022-10-03T01:35:43.483Z,11.30
2022-10-03T01:36:43.475Z,11.25
2022-10-03T01:37:43.467Z,11.32
2022-10-03T01:38:43.462Z,11.23
2022-10-03T01:39:43.452Z,11.29
2022-10-03T01:40:43.442Z,11.25
2022-10-03T01:41:43.436Z,11.29
2022-10-03T01:42:43.426Z,11.35
2022-10-03T01:43:43.418Z,11.27
2022-10-03T01:44:43.411Z,11.32
2022-10-03T01:45:43.403Z,11.35
2022-10-03T01:46:43.445Z,11.29
2022-10-03T01:47:43.388Z,11.29
2022-10-03T01:48:43.378Z,11.29
2022-10-03T01:49:43.372Z,11.32
2022-10-03T01:50:43.363Z,11.25
2022-10-03T01:51:43.355Z,11.29
2022-10-03T01:52:43.347Z,11.30
2022-10-03T01:53:43.339Z,11.29
2022-10-03T01:54:43.332Z,11.27
2022-10-03T01:55:43.323Z,11.35
2022-10-03T01:56:43.314Z,11.35
2022-10-03T01:57:43.306Z,11.40
2022-10-03T01:58:43.300Z,11.36
2022-10-03T01:59:43.291Z,11.36
2022-10-03T02:00:43.408Z,11.41
2022-10-03T02:01:43.306Z,11.45
2022-10-03T02:02:43.268Z,11.48
2022-10-03T02:03:43.257Z,11.47
2022-10-03T02:04:43.250Z,11.43
2022-10-03T02:05:43.242Z,11.41
2022-10-03T02:06:43.235Z,11.51
2022-10-03T02:07:43.227Z,11.44
2022-10-03T02:08:43.218Z,11.48
2022-10-03T02:09:43.213Z,11.43
2022-10-03T02:10:43.202Z,11.55
2022-10-03T02:11:43.202Z,11.44
2022-10-03T02:12:43.186Z,11.50
2022-10-03T02:13:43.178Z,11.54
2022-10-03T02:14:43.172Z,11.45
2022-10-03T02:15:43.192Z,11.52
2022-10-03T02:16:43.156Z,11.55
2022-10-03T02:17:43.145Z,11.57
2022-10-03T02:18:43.142Z,11.48
2022-10-03T02:19:43.131Z,11.52
2022-10-03T02:20:43.125Z,11.54
2022-10-03T02:21:43.115Z,11.57
2022-10-03T02:22:43.107Z,11.48
2022-10-03T02:23:51.778Z,11.55
2022-10-03T02:25:36.527Z,11.62
2022-10-03T02:26:36.508Z,11.62
2022-10-03T02:27:36.500Z,11.60
2022-10-03T02:28:36.492Z,11.60
2022-10-03T02:29:36.485Z,11.54
2022-10-03T02:30:36.474Z,11.65
2022-10-03T02:31:36.932Z,11.60
2022-10-03T02:32:36.454Z,11.68
2022-10-03T02:33:36.456Z,11.65
2022-10-03T02:34:36.442Z,11.70
2022-10-03T02:35:36.434Z,11.65
2022-10-03T02:36:36.430Z,11.66
2022-10-03T02:37:36.419Z,11.66
2022-10-03T02:38:36.412Z,11.68
2022-10-03T02:39:36.404Z,11.62
2022-10-03T02:40:36.399Z,11.65
2022-10-03T02:41:36.789Z,11.63
2022-10-03T02:42:36.380Z,11.51
2022-10-03T02:43:36.374Z,11.59
2022-10-03T02:44:36.367Z,11.63
2022-10-03T02:45:36.401Z,11.66
2022-10-03T02:46:36.349Z,11.52
2022-10-03T02:47:36.348Z,11.52
2022-10-03T02:48:36.333Z,11.52
2022-10-03T02:49:36.326Z,11.52
2022-10-03T02:50:36.319Z,11.57
2022-10-03T02:51:36.781Z,11.57
2022-10-03T02:52:36.306Z,11.55
2022-10-03T02:53:36.294Z,11.57
2022-10-03T02:54:36.284Z,11.59
2022-10-03T02:55:36.293Z,11.51
2022-10-03T02:56:36.269Z,11.65
2022-10-03T02:57:36.267Z,11.59
2022-10-03T02:58:36.251Z,11.59
2022-10-03T02:59:36.241Z,11.60
2022-10-03T03:00:36.292Z,11.60
2022-10-03T03:01:36.511Z,11.62
2022-10-03T03:02:36.270Z,11.55
2022-10-03T03:03:36.212Z,11.62
2022-10-03T03:04:36.257Z,11.62
2022-10-03T03:05:36.199Z,11.63
2022-10-03T03:06:36.191Z,11.65
2022-10-03T03:07:36.188Z,11.66
2022-10-03T03:08:36.180Z,11.69
2022-10-03T03:09:36.168Z,11.62
2022-10-03T03:10:36.159Z,11.60
2022-10-03T03:11:36.159Z,11.63
2022-10-03T03:12:40.408Z,11.65
2022-10-03T03:13:36.134Z,11.55
2022-10-03T03:14:36.126Z,11.63
2022-10-03T03:15:36.122Z,11.59
2022-10-03T03:16:36.177Z,11.57
2022-10-03T03:17:36.108Z,11.60
2022-10-03T03:18:36.096Z,11.59
2022-10-03T03:19:36.094Z,11.63
2022-10-03T03:20:36.075Z,11.63
2022-10-03T03:21:36.083Z,11.65
2022-10-03T03:22:36.066Z,11.63
2022-10-03T03:23:36.061Z,11.50
2022-10-03T03:24:36.103Z,11.60
2022-10-03T03:25:36.038Z,11.68
2022-10-03T03:26:36.035Z,11.63
2022-10-03T03:27:36.022Z,11.63
2022-10-03T03:28:36.018Z,11.60
2022-10-03T03:29:36.007Z,11.59
2022-10-03T03:30:36.003Z,11.66
2022-10-03T03:31:36.065Z,11.55
2022-10-03T03:32:35.986Z,11.60
2022-10-03T03:33:35.979Z,11.48
2022-10-03T03:34:35.972Z,11.55
2022-10-03T03:35:35.964Z,11.57
2022-10-03T03:36:35.961Z,11.47
2022-10-03T03:37:35.947Z,11.54
2022-10-03T03:38:35.949Z,11.51
2022-10-03T03:39:35.933Z,11.54
2022-10-03T03:40:35.924Z,11.54
2022-10-03T03:41:35.919Z,11.55
2022-10-03T03:42:35.920Z,11.57
2022-10-03T03:43:35.920Z,11.55
2022-10-03T03:44:35.917Z,11.55
2022-10-03T03:45:35.949Z,11.54
2022-10-03T03:46:35.875Z,11.60
2022-10-03T03:47:35.870Z,11.62
2022-10-03T03:48:35.866Z,11.50
2022-10-03T03:49:35.867Z,11.52
2022-10-03T03:50:35.866Z,11.48
2022-10-03T03:51:36.187Z,11.52
2022-10-03T03:52:35.838Z,11.55
2022-10-03T03:53:35.821Z,11.50
2022-10-03T03:54:35.815Z,11.55
2022-10-03T03:55:35.809Z,11.62
2022-10-03T03:56:35.807Z,11.47
2022-10-03T03:57:35.797Z,11.55
2022-10-03T03:58:35.786Z,11.51
2022-10-03T03:59:35.783Z,11.59
2022-10-03T04:00:35.763Z,11.54
2022-10-03T04:01:35.810Z,11.54
2022-10-03T04:02:35.797Z,11.60
2022-10-03T04:03:35.744Z,11.52
2022-10-03T04:04:35.734Z,11.52
2022-10-03T04:05:35.728Z,11.54
2022-10-03T04:06:35.718Z,11.52
2022-10-03T04:07:35.709Z,11.48
2022-10-03T04:08:35.704Z,11.48
2022-10-03T04:09:35.693Z,11.54
2022-10-03T04:10:35.688Z,11.52
2022-10-03T04:11:35.680Z,11.55
2022-10-03T04:12:35.671Z,11.57
2022-10-03T04:13:35.664Z,11.50
2022-10-03T04:14:35.657Z,11.52
2022-10-03T04:15:35.643Z,11.50
2022-10-03T04:16:35.660Z,11.48
2022-10-03T04:17:35.630Z,11.52
2022-10-03T04:18:35.623Z,11.54
2022-10-03T04:19:35.616Z,11.54
2022-10-03T04:20:35.628Z,11.59
2022-10-03T04:21:35.598Z,11.52
2022-10-03T04:22:35.589Z,11.60
2022-10-03T04:23:35.583Z,11.55
2022-10-03T04:24:35.576Z,11.47
2022-10-03T04:25:35.568Z,11.55
2022-10-03T04:26:35.566Z,11.51
2022-10-03T04:27:35.552Z,11.54
2022-10-03T04:28:35.543Z,11.51
2022-10-03T04:29:35.536Z,11.52
2022-10-03T04:30:35.531Z,11.51
2022-10-03T04:31:35.588Z,11.57
2022-10-03T04:32:35.526Z,11.60
2022-10-03T04:33:35.508Z,11.52
2022-10-03T04:34:35.495Z,11.59
2022-10-03T04:35:35.489Z,11.62
2022-10-03T04:36:35.488Z,11.55
2022-10-03T04:37:35.471Z,11.55
2022-10-03T04:38:35.470Z,11.63
2022-10-03T04:39:35.456Z,11.60
2022-10-03T04:40:35.455Z,11.57
2022-10-03T04:41:37.891Z,11.62
2022-10-03T04:42:35.469Z,11.57
2022-10-03T04:43:35.429Z,11.63
2022-10-03T04:44:35.418Z,11.60
2022-10-03T04:45:35.440Z,11.54
2022-10-03T04:46:35.403Z,11.62
2022-10-03T04:47:35.396Z,11.59
2022-10-03T04:48:35.390Z,11.52
2022-10-03T04:49:35.379Z,11.52
2022-10-03T04:50:35.370Z,11.62
2022-10-03T04:51:35.411Z,11.55
2022-10-03T04:52:35.358Z,11.55
2022-10-03T04:53:35.345Z,11.50
2022-10-03T04:54:35.338Z,11.47
2022-10-03T04:55:35.339Z,11.51
2022-10-03T04:56:35.319Z,11.52
2022-10-03T04:57:35.316Z,11.48
2022-10-03T04:58:35.305Z,11.57
2022-10-03T04:59:35.298Z,11.55
2022-10-03T05:00:35.292Z,11.52
2022-10-03T05:01:35.281Z,11.45
2022-10-03T05:02:35.336Z,11.52
2022-10-03T05:03:35.263Z,11.50
2022-10-03T05:04:35.271Z,11.50
2022-10-03T05:05:35.252Z,11.51
2022-10-03T05:06:35.242Z,11.48
2022-10-03T05:07:35.237Z,11.59
2022-10-03T05:08:35.223Z,11.50
2022-10-03T05:09:35.218Z,11.47
2022-10-03T05:10:35.216Z,11.55
2022-10-03T05:11:35.204Z,11.55
2022-10-03T05:12:35.198Z,11.47
2022-10-03T05:13:35.190Z,11.52
2022-10-03T05:14:35.179Z,11.54
2022-10-03T05:15:35.168Z,11.55
2022-10-03T05:16:35.267Z,11.52
2022-10-03T05:17:35.153Z,11.51
2022-10-03T05:18:35.172Z,11.51
2022-10-03T05:19:35.145Z,11.55
2022-10-03T05:20:35.135Z,11.47
2022-10-03T05:21:35.126Z,11.52
2022-10-03T05:22:35.114Z,11.55
2022-10-03T05:23:35.112Z,11.52
2022-10-03T05:24:35.103Z,11.52
2022-10-03T05:25:35.094Z,11.50
2022-10-03T05:26:50.389Z,11.52
2022-10-03T05:27:35.076Z,11.52
2022-10-03T05:28:35.118Z,11.50
2022-10-03T05:29:35.061Z,11.51
2022-10-03T05:30:35.057Z,11.48
2022-10-03T05:31:35.115Z,11.51
2022-10-03T05:32:35.038Z,11.63
2022-10-03T05:33:35.034Z,11.60
2022-10-03T05:34:35.023Z,11.60
2022-10-03T05:35:35.022Z,11.54
2022-10-03T05:36:35.005Z,11.60
2022-10-03T05:37:35.012Z,11.60
2022-10-03T05:38:34.993Z,11.62
2022-10-03T05:39:34.985Z,11.62
2022-10-03T05:40:34.976Z,11.63
2022-10-03T05:41:34.965Z,11.65
2022-10-03T05:42:34.959Z,11.70
2022-10-03T05:43:34.951Z,11.69
2022-10-03T05:44:34.937Z,11.69
2022-10-03T05:45:34.982Z,11.87
2022-10-03T05:46:34.923Z,11.72
2022-10-03T05:47:34.918Z,11.83
2022-10-03T05:48:34.909Z,11.72
2022-10-03T05:49:34.901Z,11.81
2022-10-03T05:50:34.893Z,11.83
2022-10-03T05:51:34.887Z,11.87
2022-10-03T05:52:34.878Z,11.97
2022-10-03T05:53:34.872Z,12.00
2022-10-03T05:54:34.862Z,11.94
2022-10-03T05:55:34.852Z,12.04
2022-10-03T05:56:40.171Z,12.12
2022-10-03T05:57:34.838Z,12.06
2022-10-03T05:58:34.826Z,12.10
2022-10-03T05:59:34.824Z,12.15
2022-10-03T06:00:34.815Z,12.13
2022-10-03T06:01:34.811Z,12.21
2022-10-03T06:02:34.998Z,12.35
2022-10-03T06:03:34.821Z,12.36
2022-10-03T06:04:34.783Z,12.24
2022-10-03T06:05:34.775Z,12.20
2022-10-03T06:06:34.767Z,12.25
2022-10-03T06:07:34.761Z,12.27
2022-10-03T06:08:34.755Z,12.24
2022-10-03T06:09:34.749Z,12.28
2022-10-03T06:10:34.734Z,12.17
2022-10-03T06:11:34.733Z,12.13
2022-10-03T06:12:34.723Z,12.03
2022-10-03T06:13:34.715Z,12.00
2022-10-03T06:14:34.716Z,11.94
2022-10-03T06:15:34.701Z,12.02
2022-10-03T06:16:34.695Z,11.91
2022-10-03T06:17:34.680Z,11.80
2022-10-03T06:18:34.675Z,11.84
2022-10-03T06:19:34.668Z,11.88
2022-10-03T06:20:34.679Z,12.00
2022-10-03T06:21:34.656Z,11.94
2022-10-03T06:22:34.647Z,11.90
2022-10-03T06:23:34.643Z,12.04
2022-10-03T06:24:34.625Z,12.09
2022-10-03T06:25:34.624Z,12.22
2022-10-03T06:26:34.612Z,12.06
2022-10-03T06:27:34.606Z,12.18
2022-10-03T06:28:34.649Z,12.17
2022-10-03T06:29:34.599Z,12.17
2022-10-03T06:30:34.624Z,12.31
2022-10-03T06:31:34.575Z,12.18
2022-10-03T06:32:34.569Z,12.22
2022-10-03T06:33:34.561Z,12.28
2022-10-03T06:34:34.556Z,12.24
2022-10-03T06:35:34.550Z,12.22
2022-10-03T06:36:34.541Z,12.24
2022-10-03T06:37:34.535Z,12.25
2022-10-03T06:38:34.519Z,12.24
2022-10-03T06:39:34.598Z,12.20
2022-10-03T06:40:34.507Z,12.25
2022-10-03T06:41:34.502Z,12.35
2022-10-03T06:42:34.494Z,12.35
2022-10-03T06:43:34.488Z,12.40
2022-10-03T06:44:34.481Z,12.29
2022-10-03T06:45:34.469Z,12.46
2022-10-03T06:46:34.525Z,12.40
2022-10-03T06:47:34.455Z,12.45
2022-10-03T06:48:34.447Z,12.36
2022-10-03T06:49:34.443Z,12.39
2022-10-03T06:50:34.435Z,12.45
2022-10-03T06:51:34.431Z,12.46
2022-10-03T06:52:34.416Z,12.54
2022-10-03T06:53:34.410Z,12.58
2022-10-03T06:54:34.405Z,12.57
2022-10-03T06:55:34.397Z,12.70
2022-10-03T06:56:34.388Z,12.73
2022-10-03T06:57:34.383Z,12.68
2022-10-03T06:58:34.376Z,12.80
2022-10-03T06:59:34.367Z,12.80
2022-10-03T07:00:34.359Z,12.85
2022-10-03T07:01:34.443Z,12.91
2022-10-03T07:02:34.370Z,12.87
2022-10-03T07:03:34.343Z,12.93
2022-10-03T07:04:34.332Z,12.91
2022-10-03T07:05:37.475Z,12.94
2022-10-03T07:06:34.388Z,12.87
2022-10-03T07:07:34.307Z,12.90
2022-10-03T07:08:34.303Z,12.93
2022-10-03T07:09:34.314Z,13.00
2022-10-03T07:10:34.288Z,12.91
2022-10-03T07:11:34.291Z,13.04
2022-10-03T07:12:34.275Z,13.04
2022-10-03T07:13:34.266Z,13.08
2022-10-03T07:14:34.267Z,13.12
2022-10-03T07:16:02.170Z,13.01
2022-10-03T07:16:34.290Z,13.04
2022-10-03T07:17:34.236Z,13.03
2022-10-03T07:18:34.240Z,13.04
2022-10-03T07:19:34.232Z,13.08
2022-10-03T07:20:34.223Z,13.05
2022-10-03T07:21:34.208Z,13.22
2022-10-03T07:22:34.202Z,13.15
2022-10-03T07:23:34.193Z,13.18
2022-10-03T07:24:34.188Z,13.20
2022-10-03T07:25:34.183Z,13.25
2022-10-03T07:26:34.174Z,13.25
2022-10-03T07:27:34.168Z,13.19
2022-10-03T07:28:34.204Z,13.22
2022-10-03T07:29:34.150Z,13.16
2022-10-03T07:30:34.144Z,13.25
2022-10-03T07:31:34.184Z,13.20
2022-10-03T07:32:34.134Z,13.35
2022-10-03T07:33:38.670Z,13.31
2022-10-03T07:34:34.125Z,13.25
2022-10-03T07:35:34.111Z,13.33
2022-10-03T07:36:34.102Z,13.38
2022-10-03T07:37:34.105Z,13.37
2022-10-03T07:38:34.089Z,13.20
2022-10-03T07:39:34.082Z,13.20
2022-10-03T07:40:34.081Z,13.18
2022-10-03T07:41:34.071Z,13.19
2022-10-03T07:42:34.071Z,13.20
2022-10-03T07:43:34.052Z,13.25
2022-10-03T07:44:34.049Z,13.20
2022-10-03T07:45:34.041Z,13.20
2022-10-03T07:46:34.079Z,13.19
2022-10-03T07:47:34.027Z,13.09
2022-10-03T07:48:34.020Z,13.18
2022-10-03T07:49:34.020Z,13.18
2022-10-03T07:50:34.006Z,13.11
2022-10-03T07:51:34.000Z,13.16
2022-10-03T07:52:33.998Z,13.19
2022-10-03T07:53:33.984Z,13.15
2022-10-03T07:54:33.979Z,13.25
2022-10-03T07:55:33.974Z,13.22
2022-10-03T07:56:33.963Z,13.19
2022-10-03T07:57:33.958Z,13.27
2022-10-03T07:58:33.947Z,13.20
2022-10-03T07:59:33.943Z,13.23
2022-10-03T08:00:38.416Z,13.37
2022-10-03T08:01:33.933Z,13.37
2022-10-03T08:02:33.979Z,13.44
2022-10-03T08:03:34.020Z,13.30
2022-10-03T08:04:33.918Z,13.42
2022-10-03T08:05:33.900Z,13.42
2022-10-03T08:06:33.895Z,13.46
2022-10-03T08:07:33.889Z,13.47
2022-10-03T08:08:33.890Z,13.42
2022-10-03T08:09:33.877Z,13.46
2022-10-03T08:10:38.537Z,13.30
2022-10-03T08:11:33.864Z,13.52
2022-10-03T08:12:33.857Z,13.59
2022-10-03T08:13:33.848Z,13.70
2022-10-03T08:14:33.838Z,13.79
2022-10-03T08:15:33.900Z,13.75
2022-10-03T08:16:33.831Z,13.77
2022-10-03T08:17:33.822Z,13.79
2022-10-03T08:18:33.818Z,13.65
2022-10-03T08:19:33.813Z,13.68
2022-10-03T08:20:33.802Z,13.70
2022-10-03T08:21:33.793Z,13.65
2022-10-03T08:22:33.787Z,13.70
2022-10-03T08:23:33.778Z,13.70
2022-10-03T08:24:40.929Z,13.71
2022-10-03T08:26:37.763Z,13.71
2022-10-03T08:27:37.734Z,13.75
2022-10-03T08:29:30.838Z,13.78
2022-10-03T08:30:30.821Z,13.74
2022-10-03T08:32:34.818Z,13.86
2022-10-03T08:33:34.804Z,13.90
2022-10-03T08:35:27.731Z,13.85
2022-10-03T08:36:27.714Z,13.95
2022-10-03T08:38:31.770Z,14.00
2022-10-03T08:39:31.754Z,13.92
2022-10-03T08:41:35.980Z,13.86
2022-10-03T08:42:35.970Z,13.86
2022-10-03T08:44:39.958Z,13.95
2022-10-03T08:45:39.942Z,13.99
2022-10-03T08:47:43.933Z,14.15
2022-10-03T08:48:43.923Z,14.11
2022-10-03T08:50:47.933Z,14.10
2022-10-03T08:51:47.923Z,14.18
2022-10-03T08:53:51.896Z,14.30
2022-10-03T08:54:51.882Z,14.37
2022-10-03T08:56:56.597Z,14.44
2022-10-03T08:57:56.586Z,14.41
2022-10-03T08:58:56.581Z,14.30
2022-10-03T08:59:56.576Z,14.45
2022-10-03T09:00:56.568Z,14.47
2022-10-03T09:01:56.676Z,14.41
2022-10-03T09:03:20.513Z,14.35
2022-10-03T09:03:56.576Z,14.28
2022-10-03T09:04:56.543Z,14.28
2022-10-03T09:05:56.535Z,14.30
2022-10-03T09:07:16.684Z,14.26
2022-10-03T09:07:56.526Z,14.26
2022-10-03T09:08:56.517Z,14.17
2022-10-03T09:09:56.511Z,14.20
2022-10-03T09:10:56.504Z,14.14
2022-10-03T09:11:56.500Z,14.22
2022-10-03T09:12:56.494Z,14.07
2022-10-03T09:13:56.487Z,14.17
2022-10-03T09:14:56.480Z,14.08
2022-10-03T09:15:56.492Z,14.00
2022-10-03T09:16:56.467Z,14.08
2022-10-03T09:17:56.460Z,14.15
2022-10-03T09:18:56.455Z,14.05
2022-10-03T09:19:56.449Z,14.22
2022-10-03T09:20:56.443Z,14.32
2022-10-03T09:21:56.439Z,14.37
2022-10-03T09:22:56.430Z,14.48
2022-10-03T09:23:56.423Z,14.58
2022-10-03T09:24:56.420Z,14.60
2022-10-03T09:25:56.411Z,14.60
2022-10-03T09:26:56.405Z,14.60
2022-10-03T09:27:56.427Z,14.69
2022-10-03T09:28:56.393Z,14.73
2022-10-03T09:29:56.387Z,14.79
2022-10-03T09:30:56.453Z,14.73
2022-10-03T09:31:56.401Z,14.73
2022-10-03T09:32:56.368Z,14.70
2022-10-03T09:33:56.361Z,14.72
2022-10-03T09:34:56.362Z,14.65
2022-10-03T09:35:56.348Z,14.78
2022-10-03T09:36:56.344Z,14.79
2022-10-03T09:37:56.338Z,14.78
2022-10-03T09:38:56.332Z,14.77
2022-10-03T09:39:56.328Z,14.79
2022-10-03T09:40:56.319Z,14.82
2022-10-03T09:41:56.313Z,14.79
2022-10-03T09:42:56.313Z,14.88
2022-10-03T09:43:56.303Z,14.92
2022-10-03T09:44:56.301Z,14.91
2022-10-03T09:45:56.289Z,14.84
2022-10-03T09:46:56.376Z,14.88
2022-10-03T09:47:56.278Z,14.89
2022-10-03T09:48:56.273Z,14.89
2022-10-03T09:49:56.265Z,14.88
2022-10-03T09:50:56.263Z,14.89
2022-10-03T09:51:56.254Z,14.91
2022-10-03T09:52:56.249Z,14.86
2022-10-03T09:53:56.240Z,14.86
2022-10-03T09:54:56.237Z,14.92
2022-10-03T09:55:56.231Z,14.89
2022-10-03T09:56:56.224Z,14.78
2022-10-03T09:57:56.224Z,14.66
2022-10-03T09:58:56.213Z,14.60
2022-10-03T09:59:56.205Z,14.62
2022-10-03T10:00:56.256Z,14.60
2022-10-03T10:01:56.197Z,14.55
2022-10-03T10:02:56.190Z,14.60
2022-10-03T10:03:56.203Z,14.58
2022-10-03T10:04:56.618Z,14.60
2022-10-03T10:05:56.171Z,14.63
2022-10-03T10:06:56.163Z,14.73
2022-10-03T10:07:56.158Z,14.85
2022-10-03T10:08:56.163Z,14.91
2022-10-03T10:09:56.145Z,14.89
2022-10-03T10:10:56.144Z,14.89
2022-10-03T10:11:56.133Z,14.99
2022-10-03T10:12:56.128Z,14.91
2022-10-03T10:14:07.695Z,15.03
2022-10-03T10:14:56.118Z,15.18
2022-10-03T10:15:56.155Z,15.15
2022-10-03T10:16:56.108Z,15.10
2022-10-03T10:17:56.097Z,15.10
2022-10-03T10:18:56.151Z,15.17
2022-10-03T10:19:56.105Z,15.18
2022-10-03T10:20:56.085Z,15.15
2022-10-03T10:21:56.077Z,15.15
2022-10-03T10:22:56.071Z,15.10
2022-10-03T10:23:56.063Z,15.27
2022-10-03T10:24:56.058Z,15.15
2022-10-03T10:25:56.054Z,15.17
2022-10-03T10:26:56.045Z,15.19
2022-10-03T10:27:56.078Z,15.21
2022-10-03T10:28:56.034Z,15.18
2022-10-03T10:29:56.028Z,15.29
2022-10-03T10:30:56.154Z,15.24
2022-10-03T10:31:56.017Z,15.17
2022-10-03T10:32:56.011Z,15.17
2022-10-03T10:33:56.004Z,15.10
2022-10-03T10:34:56.000Z,15.14
2022-10-03T10:35:55.993Z,15.21
2022-10-03T10:36:56.009Z,15.24
2022-10-03T10:37:56.035Z,15.31
2022-10-03T10:38:55.975Z,15.37
2022-10-03T10:39:55.971Z,15.22
2022-10-03T10:40:55.962Z,15.31
2022-10-03T10:41:55.961Z,15.27
2022-10-03T10:42:55.953Z,15.28
2022-10-03T10:43:55.947Z,15.37
2022-10-03T10:44:55.941Z,15.57
2022-10-03T10:45:55.934Z,15.55
2022-10-03T10:46:55.975Z,15.52
2022-10-03T10:47:55.926Z,15.52
2022-10-03T10:49:00.118Z,15.46
2022-10-03T10:49:55.915Z,15.54
2022-10-03T10:50:55.910Z,15.58
2022-10-03T10:51:55.901Z,15.67
2022-10-03T10:52:55.902Z,15.59
2022-10-03T10:53:55.890Z,15.55
2022-10-03T10:54:55.884Z,15.59
2022-10-03T10:55:55.880Z,15.54
2022-10-03T10:56:55.875Z,15.54
2022-10-03T10:57:55.865Z,15.62
2022-10-03T10:58:55.860Z,15.77
2022-10-03T10:59:55.856Z,15.77
2022-10-03T11:00:55.957Z,15.82
2022-10-03T11:01:55.848Z,16.00
2022-10-03T11:02:55.838Z,16.12
2022-10-03T11:03:55.833Z,16.16
2022-10-03T11:04:55.908Z,16.10
2022-10-03T11:05:55.823Z,15.97
2022-10-03T11:06:55.816Z,15.88
2022-10-03T11:07:55.814Z,15.88
2022-10-03T11:08:55.807Z,15.95
2022-10-03T11:09:55.800Z,15.76
2022-10-03T11:10:55.794Z,15.83
2022-10-03T11:11:55.800Z,15.80
2022-10-03T11:12:55.785Z,15.82
2022-10-03T11:13:55.779Z,15.79
2022-10-03T11:14:55.774Z,15.79
2022-10-03T11:15:55.809Z,15.70
2022-10-03T11:16:55.763Z,15.72
2022-10-03T11:17:55.762Z,15.70
2022-10-03T11:18:55.761Z,15.68
2022-10-03T11:19:55.748Z,15.73
2022-10-03T11:20:55.744Z,15.65
2022-10-03T11:21:55.737Z,15.70
2022-10-03T11:22:55.736Z,15.77
2022-10-03T11:23:55.726Z,15.68
2022-10-03T11:24:55.723Z,15.65
2022-10-03T11:25:55.718Z,15.57
2022-10-03T11:26:55.713Z,15.61
2022-10-03T11:27:55.721Z,15.51
2022-10-03T11:28:55.700Z,15.43
2022-10-03T11:29:55.693Z,15.44
2022-10-03T11:30:55.687Z,15.44
2022-10-03T11:31:55.796Z,15.37
2022-10-03T11:32:55.680Z,15.49
2022-10-03T11:33:55.672Z,15.47
2022-10-03T11:34:55.671Z,15.58
2022-10-03T11:35:55.662Z,15.52
2022-10-03T11:36:55.656Z,15.57
2022-10-03T11:37:55.651Z,15.58
2022-10-03T11:38:55.645Z,15.54
2022-10-03T11:39:55.642Z,15.54
2022-10-03T11:40:55.636Z,15.55
2022-10-03T11:41:55.629Z,15.52
2022-10-03T11:42:55.624Z,15.40
2022-10-03T11:44:00.871Z,15.46
2022-10-03T11:44:55.614Z,15.46
2022-10-03T11:45:55.664Z,15.47
2022-10-03T11:46:55.602Z,15.57
2022-10-03T11:47:55.597Z,15.43
2022-10-03T11:48:55.594Z,15.54
2022-10-03T11:49:55.585Z,15.47
2022-10-03T11:50:55.581Z,15.39
2022-10-03T11:51:55.575Z,15.40
2022-10-03T11:52:55.570Z,15.42
2022-10-03T11:54:07.600Z,15.36
2022-10-03T11:54:55.558Z,15.42
2022-10-03T11:55:55.554Z,15.40
2022-10-03T11:56:55.548Z,15.46
2022-10-03T11:57:55.542Z,15.43
2022-10-03T11:58:55.536Z,15.40
2022-10-03T11:59:55.531Z,15.46
2022-10-03T12:00:55.525Z,15.35
2022-10-03T12:01:55.564Z,15.36
2022-10-03T12:02:55.604Z,15.49
2022-10-03T12:03:55.515Z,15.43
2022-10-03T12:04:55.503Z,15.37
2022-10-03T12:05:55.499Z,15.49
2022-10-03T12:06:55.491Z,15.49
2022-10-03T12:07:58.376Z,15.51
2022-10-03T12:08:55.482Z,15.44
2022-10-03T12:09:55.475Z,15.31
2022-10-03T12:10:55.472Z,15.39
2022-10-03T12:11:55.465Z,15.39
2022-10-03T12:12:55.461Z,15.51
2022-10-03T12:13:55.452Z,15.51
2022-10-03T12:14:55.448Z,15.54
2022-10-03T12:15:55.442Z,15.62
2022-10-03T12:16:55.487Z,15.65
2022-10-03T12:17:55.437Z,15.73
2022-10-03T12:18:55.426Z,15.73
2022-10-03T12:19:55.424Z,15.83
2022-10-03T12:20:55.416Z,15.92
2022-10-03T12:21:55.410Z,15.97
2022-10-03T12:22:55.404Z,15.98
2022-10-03T12:23:55.394Z,16.01
2022-10-03T12:24:55.392Z,16.08
2022-10-03T12:25:55.385Z,16.13
2022-10-03T12:26:55.381Z,16.04
2022-10-03T12:27:55.416Z,15.95
2022-10-03T12:28:55.372Z,15.97
2022-10-03T12:29:55.367Z,16.08
2022-10-03T12:30:55.400Z,16.20
2022-10-03T12:31:55.362Z,16.28
2022-10-03T12:32:55.349Z,16.35
2022-10-03T12:33:55.343Z,16.35
2022-10-03T12:34:55.364Z,16.38
2022-10-03T12:35:55.333Z,16.36
2022-10-03T12:36:55.330Z,16.35
2022-10-03T12:37:55.323Z,16.26
2022-10-03T12:38:55.319Z,16.20
2022-10-03T12:39:55.315Z,16.15
2022-10-03T12:40:55.309Z,16.10
2022-10-03T12:41:55.304Z,15.91
2022-10-03T12:42:55.299Z,15.76
2022-10-03T12:43:55.290Z,15.76
2022-10-03T12:44:55.289Z,15.67
2022-10-03T12:45:55.343Z,15.59
2022-10-03T12:46:56.346Z,15.55
2022-10-03T12:47:56.564Z,15.65
2022-10-03T12:48:55.266Z,15.73
2022-10-03T12:49:55.260Z,15.57
2022-10-03T12:50:55.255Z,15.59
2022-10-03T12:51:55.252Z,15.68
2022-10-03T12:52:55.243Z,15.80
2022-10-03T12:53:55.243Z,15.80
2022-10-03T12:54:55.234Z,15.75
2022-10-03T12:55:55.229Z,15.82
2022-10-03T12:56:55.224Z,15.88
2022-10-03T12:57:55.220Z,16.08
2022-10-03T12:58:55.213Z,16.24
2022-10-03T12:59:55.207Z,16.36
2022-10-03T13:00:55.255Z,16.33
2022-10-03T13:01:55.237Z,16.42
2022-10-03T13:02:55.193Z,16.33
2022-10-03T13:03:55.187Z,16.33
2022-10-03T13:04:55.181Z,16.50
2022-10-03T13:05:55.179Z,16.53
2022-10-03T13:07:03.993Z,16.54
2022-10-03T13:07:55.174Z,16.60
2022-10-03T13:08:55.163Z,16.72
2022-10-03T13:09:55.158Z,16.79
2022-10-03T13:10:55.169Z,16.64
2022-10-03T13:11:55.145Z,16.68
2022-10-03T13:12:55.141Z,16.71
2022-10-03T13:13:55.146Z,16.75
2022-10-03T13:14:55.130Z,16.81
2022-10-03T13:15:55.168Z,16.86
2022-10-03T13:16:55.120Z,16.83
2022-10-03T13:17:55.116Z,16.89
2022-10-03T13:18:55.110Z,16.97
2022-10-03T13:19:55.105Z,16.93
2022-10-03T13:20:55.100Z,16.75
2022-10-03T13:21:55.260Z,16.75
2022-10-03T13:22:55.091Z,16.69
2022-10-03T13:23:55.087Z,16.66
2022-10-03T13:24:55.087Z,16.66
2022-10-03T13:25:55.085Z,16.53
2022-10-03T13:26:55.071Z,16.56
2022-10-03T13:27:55.126Z,16.42
2022-10-03T13:28:55.062Z,16.38
2022-10-03T13:29:55.056Z,16.28
2022-10-03T13:30:55.115Z,16.29
2022-10-03T13:31:55.048Z,16.32
2022-10-03T13:32:55.042Z,16.23